createdAt,value
2017-10-24T00:00:47.605Z,0
2017-10-24T00:01:46.990Z,0
2017-10-24T00:02:47.658Z,0
2017-10-24T00:03:47.679Z,0
2017-10-24T00:04:47.067Z,0
2017-10-24T00:05:47.701Z,0
2017-10-24T00:06:47.454Z,0
2017-10-24T00:07:47.427Z,0
2017-10-24T00:08:47.760Z,0
2017-10-24T00:09:48.110Z,0
2017-10-24T00:10:47.479Z,0
2017-10-24T00:11:47.513Z,0
2017-10-24T00:12:47.825Z,0
2017-10-24T00:13:47.524Z,0
2017-10-24T00:14:46.897Z,0
2017-10-24T00:15:47.881Z,0
2017-10-24T00:16:47.273Z,0
2017-10-24T00:17:47.917Z,0
2017-10-24T00:18:47.310Z,0
2017-10-24T00:19:47.632Z,0
2017-10-24T00:20:47.326Z,0
2017-10-24T00:21:47.676Z,0
2017-10-24T00:22:48.023Z,0
2017-10-24T00:23:47.698Z,0
2017-10-24T00:24:47.396Z,0
2017-10-24T00:25:48.379Z,0
2017-10-24T00:26:48.402Z,0
2017-10-24T00:27:48.099Z,0
2017-10-24T00:28:48.436Z,0
2017-10-24T00:29:48.124Z,0
2017-10-24T00:30:48.152Z,0
2017-10-24T00:31:47.864Z,0
2017-10-24T00:32:48.181Z,0
2017-10-24T00:33:48.209Z,0
2017-10-24T00:34:47.895Z,0
2017-10-24T00:35:48.232Z,0
2017-10-24T00:36:48.257Z,0
2017-10-24T00:37:47.618Z,0
2017-10-24T00:38:48.281Z,0
2017-10-24T00:39:48.317Z,0
2017-10-24T00:40:47.682Z,0
2017-10-24T00:41:48.409Z,0
2017-10-24T00:42:48.370Z,0
2017-10-24T00:43:48.388Z,0
2017-10-24T00:44:48.400Z,0
2017-10-24T00:45:48.743Z,0
2017-10-24T00:46:47.785Z,0
2017-10-24T00:47:48.448Z,0
2017-10-24T00:48:47.502Z,0
2017-10-24T00:49:48.480Z,0
2017-10-24T00:50:48.186Z,0
2017-10-24T00:51:48.520Z,0
2017-10-24T00:52:48.213Z,0
2017-10-24T00:53:48.554Z,0
2017-10-24T00:54:48.580Z,0
2017-10-24T00:55:48.590Z,0
2017-10-24T00:56:48.329Z,0
2017-10-24T00:57:48.306Z,0
2017-10-24T00:58:48.641Z,0
2017-10-24T00:59:48.662Z,0
2017-10-24T01:00:48.348Z,0
2017-10-24T01:01:48.700Z,0
2017-10-24T01:02:49.027Z,0
2017-10-24T01:03:49.051Z,0
2017-10-24T01:04:48.109Z,0
2017-10-24T01:05:48.447Z,0
2017-10-24T01:06:48.463Z,0
2017-10-24T01:07:48.158Z,0
2017-10-24T01:08:48.491Z,0
2017-10-24T01:09:48.513Z,0
2017-10-24T01:10:48.537Z,0
2017-10-24T01:11:48.239Z,0
2017-10-24T01:12:48.237Z,0
2017-10-24T01:13:48.260Z,0
2017-10-24T01:14:48.918Z,0
2017-10-24T01:15:48.623Z,0
2017-10-24T01:16:48.635Z,0
2017-10-24T01:17:48.988Z,0
2017-10-24T01:18:48.348Z,0
2017-10-24T01:19:49.329Z,0
2017-10-24T01:20:48.707Z,0
2017-10-24T01:21:48.758Z,0
2017-10-24T01:22:48.750Z,0
2017-10-24T01:23:48.435Z,0
2017-10-24T01:24:48.769Z,0
2017-10-24T01:25:48.799Z,0
2017-10-24T01:26:49.454Z,0
2017-10-24T01:27:48.826Z,0
2017-10-24T01:28:48.842Z,0
2017-10-24T01:29:48.865Z,0
2017-10-24T01:30:49.259Z,0
2017-10-24T01:31:48.905Z,0
2017-10-24T01:32:48.597Z,0
2017-10-24T01:33:48.617Z,0
2017-10-24T01:34:48.956Z,0
2017-10-24T01:35:48.970Z,0
2017-10-24T01:36:49.302Z,0
2017-10-24T01:37:49.330Z,0
2017-10-24T01:38:49.030Z,0
2017-10-24T01:39:49.047Z,0
2017-10-24T01:40:48.738Z,0
2017-10-24T01:41:49.414Z,0
2017-10-24T01:42:49.109Z,0
2017-10-24T01:43:49.124Z,0
2017-10-24T01:44:49.452Z,0
2017-10-24T01:45:49.474Z,0
2017-10-24T01:46:48.845Z,0
2017-10-24T01:47:48.674Z,0
2017-10-24T01:48:49.521Z,0
2017-10-24T01:49:49.207Z,0
2017-10-24T01:50:49.549Z,0
2017-10-24T01:51:49.897Z,0
2017-10-24T01:52:49.614Z,0
2017-10-24T01:53:49.599Z,0
2017-10-24T01:54:48.973Z,0
2017-10-24T01:55:49.633Z,0
2017-10-24T01:56:49.652Z,0
2017-10-24T01:57:49.351Z,0
2017-10-24T01:58:49.371Z,0
2017-10-24T01:59:49.066Z,0
2017-10-24T02:00:49.087Z,0
2017-10-24T02:01:49.772Z,0
2017-10-24T02:02:49.466Z,0
2017-10-24T02:03:49.789Z,0
2017-10-24T02:04:49.504Z,0
2017-10-24T02:05:48.912Z,0
2017-10-24T02:06:50.165Z,0
2017-10-24T02:07:49.540Z,0
2017-10-24T02:08:49.875Z,0
2017-10-24T02:09:49.910Z,0
2017-10-24T02:10:49.921Z,0
2017-10-24T02:11:50.263Z,0
2017-10-24T02:12:49.981Z,0
2017-10-24T02:13:49.649Z,0
2017-10-24T02:14:50.307Z,0
2017-10-24T02:15:49.682Z,0
2017-10-24T02:16:50.037Z,0
2017-10-24T02:17:49.737Z,0
2017-10-24T02:18:49.746Z,0
2017-10-24T02:19:50.097Z,0
2017-10-24T02:20:50.423Z,0
2017-10-24T02:21:50.442Z,0
2017-10-24T02:22:49.488Z,0
2017-10-24T02:23:49.504Z,0
2017-10-24T02:24:50.162Z,0
2017-10-24T02:25:49.864Z,0
2017-10-24T02:26:49.879Z,0
2017-10-24T02:27:50.228Z,0
2017-10-24T02:28:50.237Z,0
2017-10-24T02:29:50.263Z,0
2017-10-24T02:30:49.964Z,0
2017-10-24T02:31:49.968Z,0
2017-10-24T02:32:50.312Z,0
2017-10-24T02:33:49.683Z,0
2017-10-24T02:34:50.349Z,0
2017-10-24T02:35:50.041Z,0
2017-10-24T02:36:50.379Z,0
2017-10-24T02:37:50.407Z,0
2017-10-24T02:38:50.093Z,0
2017-10-24T02:39:50.158Z,0
2017-10-24T02:40:50.454Z,0
2017-10-24T02:41:50.471Z,0
2017-10-24T02:42:49.842Z,0
2017-10-24T02:43:49.860Z,0
2017-10-24T02:44:50.197Z,0
2017-10-24T02:45:50.220Z,0
2017-10-24T02:46:50.242Z,0
2017-10-24T02:47:50.592Z,0
2017-10-24T02:48:50.273Z,0
2017-10-24T02:49:50.619Z,0
2017-10-24T02:50:50.315Z,0
2017-10-24T02:51:50.330Z,0
2017-10-24T02:52:50.990Z,0
2017-10-24T02:53:50.386Z,0
2017-10-24T02:54:50.397Z,0
2017-10-24T02:55:51.049Z,0
2017-10-24T02:56:50.422Z,0
2017-10-24T02:57:50.446Z,0
2017-10-24T02:58:50.822Z,0
2017-10-24T02:59:50.474Z,0
2017-10-24T03:00:50.483Z,0
2017-10-24T03:01:50.823Z,0
2017-10-24T03:02:50.204Z,0
2017-10-24T03:03:50.860Z,0
2017-10-24T03:04:51.194Z,0
2017-10-24T03:05:50.248Z,0
2017-10-24T03:06:50.920Z,0
2017-10-24T03:07:50.284Z,0
2017-10-24T03:08:50.637Z,0
2017-10-24T03:09:51.302Z,0
2017-10-24T03:10:50.665Z,0
2017-10-24T03:11:51.349Z,0
2017-10-24T03:12:51.354Z,0
2017-10-24T03:13:50.723Z,0
2017-10-24T03:14:50.470Z,0
2017-10-24T03:15:51.083Z,0
2017-10-24T03:16:51.116Z,0
2017-10-24T03:17:50.801Z,0
2017-10-24T03:18:50.813Z,0
2017-10-24T03:19:50.192Z,0
2017-10-24T03:20:51.167Z,0
2017-10-24T03:21:51.187Z,0
2017-10-24T03:22:50.891Z,0
2017-10-24T03:23:51.223Z,0
2017-10-24T03:24:50.916Z,0
2017-10-24T03:25:51.258Z,0
2017-10-24T03:26:50.955Z,0
2017-10-24T03:27:50.657Z,0
2017-10-24T03:28:51.648Z,0
2017-10-24T03:29:51.375Z,0
2017-10-24T03:30:51.040Z,0
2017-10-24T03:31:51.371Z,0
2017-10-24T03:32:51.066Z,0
2017-10-24T03:33:51.075Z,0
2017-10-24T03:34:50.773Z,0
2017-10-24T03:35:51.755Z,0
2017-10-24T03:36:51.133Z,0
2017-10-24T03:37:51.474Z,0
2017-10-24T03:38:51.188Z,0
2017-10-24T03:39:50.540Z,0
2017-10-24T03:40:51.201Z,0
2017-10-24T03:41:51.867Z,0
2017-10-24T03:42:50.914Z,0
2017-10-24T03:43:51.257Z,0
2017-10-24T03:44:50.955Z,0
2017-10-24T03:45:50.965Z,0
2017-10-24T03:46:51.363Z,0
2017-10-24T03:47:51.005Z,0
2017-10-24T03:48:50.701Z,0
2017-10-24T03:49:51.364Z,0
2017-10-24T03:50:51.386Z,0
2017-10-24T03:51:51.724Z,0
2017-10-24T03:52:51.411Z,0
2017-10-24T03:53:51.440Z,0
2017-10-24T03:54:51.769Z,0
2017-10-24T03:55:51.477Z,0
2017-10-24T03:56:51.808Z,0
2017-10-24T03:57:51.516Z,0
2017-10-24T03:58:51.863Z,0
2017-10-24T03:59:52.185Z,0
2017-10-24T04:00:51.890Z,0
2017-10-24T04:01:51.626Z,0
2017-10-24T04:02:51.916Z,0
2017-10-24T04:03:51.618Z,0
2017-10-24T04:04:52.288Z,0
2017-10-24T04:05:51.668Z,0
2017-10-24T04:06:51.344Z,0
2017-10-24T04:07:52.004Z,0
2017-10-24T04:08:52.340Z,0
2017-10-24T04:09:51.074Z,0
2017-10-24T04:10:52.379Z,0
2017-10-24T04:11:52.075Z,0
2017-10-24T04:12:52.113Z,0
2017-10-24T04:13:52.438Z,0
2017-10-24T04:14:51.805Z,0
2017-10-24T04:15:51.828Z,0
2017-10-24T04:16:51.899Z,0
2017-10-24T04:17:51.876Z,0
2017-10-24T04:18:52.523Z,0
2017-10-24T04:19:51.909Z,0
2017-10-24T04:20:51.918Z,0
2017-10-24T04:21:51.611Z,0
2017-10-24T04:22:51.949Z,0
2017-10-24T04:23:51.995Z,0
2017-10-24T04:24:51.987Z,0
2017-10-24T04:25:52.007Z,0
2017-10-24T04:26:52.355Z,0
2017-10-24T04:27:52.047Z,0
2017-10-24T04:28:52.071Z,0
2017-10-24T04:29:52.396Z,0
2017-10-24T04:30:52.090Z,0
2017-10-24T04:31:52.487Z,0
2017-10-24T04:32:52.782Z,0
2017-10-24T04:33:52.474Z,0
2017-10-24T04:34:51.524Z,0
2017-10-24T04:35:51.536Z,0
2017-10-24T04:36:52.842Z,0
2017-10-24T04:37:52.219Z,0
2017-10-24T04:38:52.563Z,0
2017-10-24T04:39:52.263Z,0
2017-10-24T04:40:51.952Z,0
2017-10-24T04:41:52.610Z,0
2017-10-24T04:42:52.941Z,0
2017-10-24T04:43:52.661Z,0
2017-10-24T04:44:52.660Z,0
2017-10-24T04:45:52.676Z,0
2017-10-24T04:46:52.700Z,0
2017-10-24T04:47:52.393Z,0
2017-10-24T04:48:53.121Z,0
2017-10-24T04:49:52.438Z,0
2017-10-24T04:50:52.131Z,0
2017-10-24T04:51:52.464Z,0
2017-10-24T04:52:51.841Z,0
2017-10-24T04:53:52.507Z,0
2017-10-24T04:54:52.522Z,0
2017-10-24T04:55:52.541Z,0
2017-10-24T04:56:53.198Z,0
2017-10-24T04:57:53.228Z,0
2017-10-24T04:58:52.919Z,0
2017-10-24T04:59:52.932Z,0
2017-10-24T05:00:52.639Z,0
2017-10-24T05:01:52.648Z,0
2017-10-24T05:02:52.667Z,0
2017-10-24T05:03:52.360Z,0
2017-10-24T05:04:53.025Z,0
2017-10-24T05:05:52.724Z,0
2017-10-24T05:06:53.058Z,0
2017-10-24T05:07:52.809Z,0
2017-10-24T05:08:52.798Z,0
2017-10-24T05:09:52.793Z,0
2017-10-24T05:10:52.819Z,0
2017-10-24T05:11:53.151Z,0
2017-10-24T05:12:52.538Z,0
2017-10-24T05:13:53.183Z,0
2017-10-24T05:14:52.883Z,0
2017-10-24T05:15:52.907Z,0
2017-10-24T05:16:52.923Z,0
2017-10-24T05:17:52.630Z,0
2017-10-24T05:18:53.293Z,0
2017-10-24T05:19:52.971Z,0
2017-10-24T05:20:53.315Z,0
2017-10-24T05:21:53.008Z,0
2017-10-24T05:22:53.077Z,0
2017-10-24T05:23:52.729Z,0
2017-10-24T05:24:53.069Z,0
2017-10-24T05:25:53.402Z,0
2017-10-24T05:26:53.447Z,0
2017-10-24T05:27:53.124Z,0
2017-10-24T05:28:53.454Z,0
2017-10-24T05:29:53.482Z,0
2017-10-24T05:30:53.165Z,0
2017-10-24T05:31:53.187Z,0
2017-10-24T05:32:53.208Z,0
2017-10-24T05:33:53.225Z,0
2017-10-24T05:34:53.564Z,0
2017-10-24T05:35:53.922Z,0
2017-10-24T05:36:52.638Z,0
2017-10-24T05:37:53.296Z,0
2017-10-24T05:38:52.991Z,0
2017-10-24T05:39:53.973Z,0
2017-10-24T05:40:53.674Z,0
2017-10-24T05:41:53.393Z,0
2017-10-24T05:42:53.064Z,0
2017-10-24T05:43:53.405Z,0
2017-10-24T05:44:53.106Z,0
2017-10-24T05:45:53.775Z,5
2017-10-24T05:46:53.474Z,5
2017-10-24T05:47:53.866Z,5
2017-10-24T05:48:52.855Z,5
2017-10-24T05:49:53.831Z,5
2017-10-24T05:50:53.533Z,5
2017-10-24T05:51:53.868Z,5
2017-10-24T05:52:53.243Z,5
2017-10-24T05:53:53.908Z,5
2017-10-24T05:54:53.919Z,5
2017-10-24T05:55:53.930Z,5
2017-10-24T05:56:53.954Z,5
2017-10-24T05:57:53.646Z,5
2017-10-24T05:58:53.986Z,10
2017-10-24T05:59:53.358Z,10
2017-10-24T06:00:53.709Z,10
2017-10-24T06:01:54.042Z,10
2017-10-24T06:02:53.750Z,10
2017-10-24T06:03:53.811Z,10
2017-10-24T06:04:54.095Z,10
2017-10-24T06:05:54.165Z,10
2017-10-24T06:06:53.173Z,10
2017-10-24T06:07:53.831Z,10
2017-10-24T06:08:53.524Z,10
2017-10-24T06:09:53.866Z,10
2017-10-24T06:10:54.200Z,15
2017-10-24T06:11:54.221Z,15
2017-10-24T06:12:54.261Z,15
2017-10-24T06:13:54.265Z,15
2017-10-24T06:14:53.639Z,15
2017-10-24T06:15:54.361Z,15
2017-10-24T06:16:53.686Z,15
2017-10-24T06:17:54.015Z,15
2017-10-24T06:18:53.764Z,20
2017-10-24T06:19:53.408Z,20
2017-10-24T06:20:54.089Z,20
2017-10-24T06:21:54.406Z,20
2017-10-24T06:22:54.442Z,20
2017-10-24T06:23:54.452Z,25
2017-10-24T06:24:54.137Z,25
2017-10-24T06:25:54.165Z,25
2017-10-24T06:26:54.507Z,25
2017-10-24T06:27:54.202Z,25
2017-10-24T06:28:54.544Z,30
2017-10-24T06:29:54.550Z,30
2017-10-24T06:30:54.889Z,30
2017-10-24T06:31:54.267Z,30
2017-10-24T06:32:54.295Z,30
2017-10-24T06:33:53.981Z,30
2017-10-24T06:34:54.323Z,35
2017-10-24T06:35:54.023Z,35
2017-10-24T06:36:54.043Z,35
2017-10-24T06:37:55.075Z,35
2017-10-24T06:38:54.395Z,35
2017-10-24T06:39:54.413Z,40
2017-10-24T06:40:54.431Z,40
2017-10-24T06:41:54.455Z,40
2017-10-24T06:42:54.492Z,45
2017-10-24T06:43:54.168Z,45
2017-10-24T06:44:54.847Z,50
2017-10-24T06:45:54.202Z,50
2017-10-24T06:46:54.545Z,50
2017-10-24T06:47:54.888Z,50
2017-10-24T06:48:54.920Z,50
2017-10-24T06:49:55.247Z,55
2017-10-24T06:50:55.258Z,55
2017-10-24T06:51:54.654Z,55
2017-10-24T06:52:54.852Z,55
2017-10-24T06:53:55.008Z,55
2017-10-24T06:54:54.372Z,60
2017-10-24T06:55:55.051Z,60
2017-10-24T06:56:55.058Z,60
2017-10-24T06:57:55.081Z,60
2017-10-24T06:58:54.767Z,65
2017-10-24T06:59:54.463Z,65
2017-10-24T07:00:55.128Z,65
2017-10-24T07:01:55.161Z,70
2017-10-24T07:02:54.851Z,70
2017-10-24T07:03:54.882Z,75
2017-10-24T07:04:54.877Z,75
2017-10-24T07:05:55.214Z,75
2017-10-24T07:06:55.236Z,80
2017-10-24T07:07:55.315Z,80
2017-10-24T07:08:54.643Z,80
2017-10-24T07:09:54.977Z,80
2017-10-24T07:10:54.993Z,80
2017-10-24T07:11:55.343Z,80
2017-10-24T07:12:55.360Z,80
2017-10-24T07:13:55.053Z,80
2017-10-24T07:14:55.398Z,80
2017-10-24T07:15:55.095Z,85
2017-10-24T07:16:55.421Z,85
2017-10-24T07:17:55.440Z,85
2017-10-24T07:18:55.138Z,85
2017-10-24T07:19:55.484Z,85
2017-10-24T07:20:55.179Z,90
2017-10-24T07:21:55.199Z,90
2017-10-24T07:22:54.641Z,95
2017-10-24T07:23:55.240Z,95
2017-10-24T07:24:55.951Z,100
2017-10-24T07:25:55.619Z,100
2017-10-24T07:26:55.621Z,100
2017-10-24T07:27:55.975Z,100
2017-10-24T07:28:55.662Z,100
2017-10-24T07:29:56.007Z,100
2017-10-24T07:30:55.726Z,100
2017-10-24T07:31:56.065Z,100
2017-10-24T07:32:55.420Z,100
2017-10-24T07:33:55.119Z,100
2017-10-24T07:34:55.459Z,105
2017-10-24T07:35:55.798Z,105
2017-10-24T07:36:55.501Z,110
2017-10-24T07:37:55.191Z,110
2017-10-24T07:38:55.857Z,115
2017-10-24T07:39:55.876Z,115
2017-10-24T07:40:55.906Z,120
2017-10-24T07:41:55.315Z,120
2017-10-24T07:42:55.619Z,115
2017-10-24T07:43:56.270Z,115
2017-10-24T07:44:55.327Z,115
2017-10-24T07:45:55.988Z,115
2017-10-24T07:46:56.012Z,115
2017-10-24T07:47:56.029Z,120
2017-10-24T07:48:55.730Z,125
2017-10-24T07:49:56.081Z,125
2017-10-24T07:50:55.465Z,125
2017-10-24T07:51:55.470Z,130
2017-10-24T07:52:56.128Z,130
2017-10-24T07:53:55.824Z,130
2017-10-24T07:54:55.531Z,130
2017-10-24T07:55:55.858Z,125
2017-10-24T07:56:56.250Z,115
2017-10-24T07:57:55.587Z,115
2017-10-24T07:58:55.595Z,115
2017-10-24T07:59:55.616Z,120
2017-10-24T08:00:56.280Z,140
2017-10-24T08:01:56.300Z,165
2017-10-24T08:02:56.314Z,180
2017-10-24T08:03:56.665Z,200
2017-10-24T08:04:56.365Z,215
2017-10-24T08:05:56.728Z,220
2017-10-24T08:06:55.750Z,215
2017-10-24T08:07:56.740Z,210
2017-10-24T08:08:55.468Z,205
2017-10-24T08:09:55.484Z,210
2017-10-24T08:10:56.150Z,210
2017-10-24T08:11:56.169Z,210
2017-10-24T08:12:56.200Z,205
2017-10-24T08:13:55.879Z,205
2017-10-24T08:14:56.219Z,205
2017-10-24T08:15:56.237Z,205
2017-10-24T08:16:56.268Z,205
2017-10-24T08:17:56.607Z,205
2017-10-24T08:18:55.994Z,205
2017-10-24T08:19:56.977Z,205
2017-10-24T08:20:56.026Z,200
2017-10-24T08:21:56.700Z,200
2017-10-24T08:22:56.725Z,195
2017-10-24T08:23:56.408Z,195
2017-10-24T08:24:56.112Z,195
2017-10-24T08:25:56.760Z,195
2017-10-24T08:26:56.783Z,195
2017-10-24T08:27:56.473Z,190
2017-10-24T08:28:56.789Z,190
2017-10-24T08:29:56.809Z,190
2017-10-24T08:30:56.895Z,200
2017-10-24T08:31:56.530Z,205
2017-10-24T08:32:56.241Z,210
2017-10-24T08:33:56.267Z,215
2017-10-24T08:34:56.912Z,220
2017-10-24T08:35:56.617Z,225
2017-10-24T08:36:56.956Z,230
2017-10-24T08:37:56.334Z,235
2017-10-24T08:38:56.351Z,240
2017-10-24T08:39:56.380Z,240
2017-10-24T08:40:56.397Z,245
2017-10-24T08:41:56.735Z,250
2017-10-24T08:42:56.431Z,255
2017-10-24T08:43:57.127Z,255
2017-10-24T08:44:57.152Z,255
2017-10-24T08:45:56.894Z,260
2017-10-24T08:46:56.542Z,280
2017-10-24T08:47:57.538Z,300
2017-10-24T08:48:56.914Z,375
2017-10-24T08:49:56.944Z,325
2017-10-24T08:50:56.948Z,320
2017-10-24T08:51:56.966Z,310
2017-10-24T08:52:57.001Z,300
2017-10-24T08:53:57.025Z,290
2017-10-24T08:54:56.706Z,290
2017-10-24T08:55:57.052Z,300
2017-10-24T08:56:56.749Z,305
2017-10-24T08:57:57.096Z,315
2017-10-24T08:58:57.440Z,330
2017-10-24T08:59:57.453Z,335
2017-10-24T09:00:57.806Z,360
2017-10-24T09:01:57.827Z,445
2017-10-24T09:02:57.843Z,380
2017-10-24T09:03:56.899Z,360
2017-10-24T09:04:57.562Z,345
2017-10-24T09:05:57.269Z,340
2017-10-24T09:06:57.611Z,320
2017-10-24T09:07:56.984Z,295
2017-10-24T09:08:57.652Z,270
2017-10-24T09:09:57.676Z,240
2017-10-24T09:10:57.682Z,230
2017-10-24T09:11:57.712Z,225
2017-10-24T09:12:57.104Z,245
2017-10-24T09:13:57.428Z,290
2017-10-24T09:14:57.451Z,320
2017-10-24T09:15:57.577Z,305
2017-10-24T09:16:57.527Z,290
2017-10-24T09:17:57.876Z,295
2017-10-24T09:18:57.543Z,325
2017-10-24T09:19:57.891Z,360
2017-10-24T09:20:57.909Z,385
2017-10-24T09:21:56.958Z,390
2017-10-24T09:22:57.631Z,390
2017-10-24T09:23:57.646Z,395
2017-10-24T09:24:57.989Z,400
2017-10-24T09:25:57.684Z,400
2017-10-24T09:26:58.055Z,395
2017-10-24T09:27:58.059Z,390
2017-10-24T09:28:57.774Z,360
2017-10-24T09:29:58.103Z,340
2017-10-24T09:30:57.814Z,335
2017-10-24T09:31:57.850Z,305
2017-10-24T09:32:57.892Z,285
2017-10-24T09:33:57.862Z,260
2017-10-24T09:34:57.885Z,260
2017-10-24T09:35:57.578Z,315
2017-10-24T09:36:57.924Z,400
2017-10-24T09:37:58.287Z,290
2017-10-24T09:38:57.978Z,305
2017-10-24T09:39:58.633Z,340
2017-10-24T09:40:58.333Z,335
2017-10-24T09:41:58.354Z,305
2017-10-24T09:42:58.371Z,365
2017-10-24T09:43:58.083Z,390
2017-10-24T09:44:58.419Z,395
2017-10-24T09:45:58.450Z,430
2017-10-24T09:46:58.136Z,390
2017-10-24T09:47:58.178Z,370
2017-10-24T09:48:58.846Z,485
2017-10-24T09:49:58.198Z,415
2017-10-24T09:50:58.275Z,585
2017-10-24T09:51:58.894Z,605
2017-10-24T09:52:58.590Z,1040
2017-10-24T09:53:58.616Z,1135
2017-10-24T09:54:58.314Z,490
2017-10-24T09:55:58.009Z,525
2017-10-24T09:56:58.358Z,490
2017-10-24T09:57:58.716Z,520
2017-10-24T09:58:59.041Z,525
2017-10-24T09:59:58.427Z,525
2017-10-24T10:00:58.465Z,585
2017-10-24T10:01:58.469Z,635
2017-10-24T10:02:58.178Z,815
2017-10-24T10:03:58.845Z,820
2017-10-24T10:04:58.219Z,730
2017-10-24T10:05:58.577Z,815
2017-10-24T10:06:59.225Z,775
2017-10-24T10:07:58.329Z,750
2017-10-24T10:08:58.980Z,790
2017-10-24T10:09:58.974Z,705
2017-10-24T10:10:58.361Z,725
2017-10-24T10:11:58.701Z,790
2017-10-24T10:12:58.729Z,620
2017-10-24T10:13:59.401Z,615
2017-10-24T10:14:58.782Z,850
2017-10-24T10:15:58.796Z,1045
2017-10-24T10:16:58.505Z,825
2017-10-24T10:17:59.181Z,1045
2017-10-24T10:18:59.196Z,1440
2017-10-24T10:19:58.896Z,825
2017-10-24T10:20:59.247Z,795
2017-10-24T10:21:58.952Z,770
2017-10-24T10:22:59.049Z,675
2017-10-24T10:23:58.354Z,660
2017-10-24T10:24:59.673Z,730
2017-10-24T10:25:59.065Z,710
2017-10-24T10:26:59.729Z,680
2017-10-24T10:27:59.098Z,765
2017-10-24T10:28:59.129Z,1340
2017-10-24T10:29:58.842Z,680
2017-10-24T10:30:58.527Z,660
2017-10-24T10:31:59.200Z,625
2017-10-24T10:32:59.219Z,655
2017-10-24T10:33:59.560Z,720
2017-10-24T10:34:59.591Z,755
2017-10-24T10:35:59.620Z,780
2017-10-24T10:36:59.335Z,705
2017-10-24T10:37:59.396Z,875
2017-10-24T10:38:59.373Z,740
2017-10-24T10:39:59.410Z,620
2017-10-24T10:40:59.102Z,605
2017-10-24T10:41:59.471Z,580
2017-10-24T10:42:59.809Z,570
2017-10-24T10:43:59.499Z,600
2017-10-24T10:45:00.192Z,560
2017-10-24T10:45:59.554Z,565
2017-10-24T10:47:00.235Z,605
2017-10-24T10:47:59.285Z,625
2017-10-24T10:48:59.627Z,580
2017-10-24T10:49:59.658Z,595
2017-10-24T10:50:59.672Z,585
2017-10-24T10:52:00.021Z,600
2017-10-24T10:52:59.779Z,615
2017-10-24T10:53:59.756Z,610
2017-10-24T10:54:59.786Z,635
2017-10-24T10:55:59.480Z,750
2017-10-24T10:56:59.854Z,965
2017-10-24T10:57:59.851Z,645
2017-10-24T10:58:59.874Z,670
2017-10-24T10:59:59.260Z,675
2017-10-24T11:01:00.250Z,1070
2017-10-24T11:01:59.954Z,955
2017-10-24T11:02:59.979Z,635
2017-10-24T11:04:00.328Z,715
2017-10-24T11:05:00.348Z,750
2017-10-24T11:06:00.677Z,590
2017-10-24T11:07:00.068Z,615
2017-10-24T11:08:00.436Z,560
2017-10-24T11:08:59.845Z,450
2017-10-24T11:10:00.148Z,405
2017-10-24T11:11:00.173Z,355
2017-10-24T11:12:00.200Z,370
2017-10-24T11:12:59.913Z,400
2017-10-24T11:13:59.931Z,500
2017-10-24T11:15:00.643Z,545
2017-10-24T11:16:00.624Z,735
2017-10-24T11:17:00.327Z,530
2017-10-24T11:18:00.044Z,540
2017-10-24T11:19:00.373Z,560
2017-10-24T11:20:00.081Z,995
2017-10-24T11:21:00.776Z,825
2017-10-24T11:22:00.486Z,450
2017-10-24T11:23:00.795Z,405
2017-10-24T11:24:00.238Z,400
2017-10-24T11:25:00.525Z,415
2017-10-24T11:26:00.559Z,415
2017-10-24T11:27:00.579Z,440
2017-10-24T11:28:00.931Z,1070
2017-10-24T11:29:00.946Z,460
2017-10-24T11:30:00.969Z,480
2017-10-24T11:31:01.328Z,550
2017-10-24T11:32:01.024Z,650
2017-10-24T11:33:00.727Z,1175
2017-10-24T11:34:00.427Z,730
2017-10-24T11:35:00.458Z,1620
2017-10-24T11:36:01.441Z,715
2017-10-24T11:37:00.508Z,675
2017-10-24T11:38:01.503Z,1750
2017-10-24T11:39:00.553Z,845
2017-10-24T11:40:01.594Z,760
2017-10-24T11:41:00.604Z,580
2017-10-24T11:42:01.268Z,600
2017-10-24T11:43:01.293Z,685
2017-10-24T11:44:01.333Z,445
2017-10-24T11:45:01.667Z,445
2017-10-24T11:46:01.376Z,520
2017-10-24T11:47:00.754Z,600
2017-10-24T11:48:01.424Z,605
2017-10-24T11:49:00.803Z,605
2017-10-24T11:50:01.511Z,1245
2017-10-24T11:51:00.545Z,1855
2017-10-24T11:52:01.525Z,815
2017-10-24T11:53:01.242Z,760
2017-10-24T11:54:01.596Z,1550
2017-10-24T11:55:01.342Z,865
2017-10-24T11:56:00.988Z,690
2017-10-24T11:57:01.670Z,585
2017-10-24T11:58:01.696Z,730
2017-10-24T11:59:01.394Z,2275
2017-10-24T12:00:01.749Z,2350
2017-10-24T12:01:01.777Z,2130
2017-10-24T12:02:02.112Z,2130
2017-10-24T12:03:01.494Z,2135
2017-10-24T12:04:01.203Z,2040
2017-10-24T12:05:01.227Z,1815
2017-10-24T12:06:02.230Z,2070
2017-10-24T12:07:01.618Z,2210
2017-10-24T12:08:01.667Z,1870
2017-10-24T12:09:02.315Z,1250
2017-10-24T12:10:01.693Z,1795
2017-10-24T12:11:02.049Z,1655
2017-10-24T12:12:01.438Z,1750
2017-10-24T12:13:02.114Z,2045
2017-10-24T12:14:01.173Z,2250
2017-10-24T12:15:02.168Z,2160
2017-10-24T12:16:02.204Z,2170
2017-10-24T12:17:01.580Z,2205
2017-10-24T12:18:02.269Z,2065
2017-10-24T12:19:02.265Z,2185
2017-10-24T12:20:01.996Z,2160
2017-10-24T12:21:02.334Z,2295
2017-10-24T12:22:02.053Z,1745
2017-10-24T12:23:02.412Z,1270
2017-10-24T12:24:02.132Z,1185
2017-10-24T12:25:02.481Z,1420
2017-10-24T12:26:01.866Z,1950
2017-10-24T12:27:02.536Z,2040
2017-10-24T12:28:02.586Z,795
2017-10-24T12:29:01.966Z,630
2017-10-24T12:30:02.314Z,605
2017-10-24T12:31:02.982Z,660
2017-10-24T12:32:03.027Z,830
2017-10-24T12:33:02.744Z,625
2017-10-24T12:34:02.442Z,585
2017-10-24T12:35:02.463Z,600
2017-10-24T12:36:02.504Z,595
2017-10-24T12:37:02.528Z,715
2017-10-24T12:38:02.249Z,600
2017-10-24T12:39:02.260Z,545
2017-10-24T12:40:02.669Z,1215
2017-10-24T12:41:02.971Z,650
2017-10-24T12:42:02.995Z,690
2017-10-24T12:43:02.694Z,610
2017-10-24T12:44:02.410Z,695
2017-10-24T12:45:02.434Z,660
2017-10-24T12:46:02.467Z,1365
2017-10-24T12:47:02.807Z,805
2017-10-24T12:48:03.174Z,850
2017-10-24T12:49:03.194Z,690
2017-10-24T12:50:02.900Z,610
2017-10-24T12:51:03.602Z,620
2017-10-24T12:52:02.636Z,600
2017-10-24T12:53:03.299Z,595
2017-10-24T12:54:03.003Z,605
2017-10-24T12:55:03.027Z,645
2017-10-24T12:56:03.055Z,545
2017-10-24T12:57:03.099Z,680
2017-10-24T12:58:03.430Z,500
2017-10-24T12:59:03.511Z,495
2017-10-24T13:00:03.488Z,555
2017-10-24T13:01:02.543Z,555
2017-10-24T13:02:02.903Z,515
2017-10-24T13:03:03.251Z,495
2017-10-24T13:04:03.590Z,450
2017-10-24T13:05:03.300Z,425
2017-10-24T13:06:03.646Z,400
2017-10-24T13:07:03.672Z,375
2017-10-24T13:08:03.078Z,350
2017-10-24T13:09:03.072Z,330
2017-10-24T13:10:03.751Z,330
2017-10-24T13:11:03.121Z,325
2017-10-24T13:12:03.475Z,320
2017-10-24T13:13:03.510Z,315
2017-10-24T13:14:03.862Z,320
2017-10-24T13:15:03.232Z,330
2017-10-24T13:16:04.241Z,335
2017-10-24T13:17:04.245Z,340
2017-10-24T13:18:04.016Z,345
2017-10-24T13:19:03.340Z,345
2017-10-24T13:20:03.682Z,360
2017-10-24T13:21:03.715Z,370
2017-10-24T13:22:03.728Z,385
2017-10-24T13:23:03.752Z,385
2017-10-24T13:24:03.782Z,385
2017-10-24T13:25:04.137Z,390
2017-10-24T13:26:04.470Z,395
2017-10-24T13:27:03.847Z,395
2017-10-24T13:28:03.556Z,385
2017-10-24T13:29:03.906Z,365
2017-10-24T13:30:04.257Z,350
2017-10-24T13:31:04.598Z,335
2017-10-24T13:32:03.977Z,320
2017-10-24T13:33:04.052Z,305
2017-10-24T13:34:04.031Z,290
2017-10-24T13:35:04.044Z,280
2017-10-24T13:36:04.083Z,270
2017-10-24T13:37:03.776Z,260
2017-10-24T13:38:03.803Z,255
2017-10-24T13:39:04.466Z,265
2017-10-24T13:40:03.878Z,265
2017-10-24T13:41:04.195Z,270
2017-10-24T13:42:04.888Z,270
2017-10-24T13:43:04.897Z,270
2017-10-24T13:44:03.952Z,275
2017-10-24T13:45:04.946Z,315
2017-10-24T13:46:04.005Z,285
2017-10-24T13:47:04.025Z,325
2017-10-24T13:48:04.752Z,375
2017-10-24T13:49:04.733Z,430
2017-10-24T13:50:04.782Z,625
2017-10-24T13:51:05.091Z,445
2017-10-24T13:52:04.469Z,515
2017-10-24T13:53:04.813Z,535
2017-10-24T13:54:04.514Z,380
2017-10-24T13:55:04.215Z,350
2017-10-24T13:56:04.567Z,320
2017-10-24T13:57:04.917Z,300
2017-10-24T13:58:04.618Z,280
2017-10-24T13:59:04.648Z,280
2017-10-24T14:00:04.675Z,280
2017-10-24T14:01:04.045Z,280
2017-10-24T14:02:04.713Z,265
2017-10-24T14:03:04.464Z,265
2017-10-24T14:04:05.082Z,295
2017-10-24T14:05:04.485Z,320
2017-10-24T14:06:04.805Z,415
2017-10-24T14:07:05.152Z,845
2017-10-24T14:08:04.860Z,480
2017-10-24T14:09:04.884Z,950
2017-10-24T14:10:05.227Z,1465
2017-10-24T14:11:05.260Z,1610
2017-10-24T14:12:04.307Z,2410
2017-10-24T14:13:04.655Z,1070